createdAt,value
2023-01-11T00:09:29.679Z,44.80
2023-01-11T00:24:31.098Z,44.80
2023-01-11T00:39:32.511Z,44.80
2023-01-11T00:54:33.924Z,44.70
2023-01-11T01:09:35.324Z,44.80
2023-01-11T01:24:36.710Z,44.70
2023-01-11T01:39:38.122Z,44.80
2023-01-11T01:54:39.528Z,44.80
2023-01-11T02:09:40.935Z,44.80
2023-01-11T02:24:42.351Z,44.80
2023-01-11T02:39:43.799Z,44.80
2023-01-11T02:54:45.268Z,44.80
2023-01-11T03:09:46.698Z,44.90
2023-01-11T03:24:48.106Z,44.80
2023-01-11T03:39:49.506Z,44.80
2023-01-11T03:54:50.912Z,44.90
2023-01-11T04:09:52.352Z,44.90
2023-01-11T04:24:53.763Z,45.00
2023-01-11T04:39:55.175Z,45.00
2023-01-11T04:54:56.602Z,45.00
2023-01-11T05:09:58.062Z,45.10
2023-01-11T05:24:59.517Z,45.10
2023-01-11T05:40:01.006Z,45.10
2023-01-11T05:55:02.490Z,45.10
2023-01-11T06:10:03.985Z,45.20
2023-01-11T06:25:05.457Z,45.30
2023-01-11T06:40:06.984Z,45.30
2023-01-11T06:55:08.451Z,45.40
2023-01-11T07:10:09.945Z,45.40
2023-01-11T07:25:11.444Z,45.50
2023-01-11T07:40:12.934Z,45.40
2023-01-11T07:55:14.427Z,45.50
2023-01-11T08:10:15.906Z,45.70
2023-01-11T08:25:17.373Z,45.70
2023-01-11T08:40:18.844Z,45.70
2023-01-11T10:18:43.435Z,48.00
2023-01-11T10:32:13.622Z,46.90
2023-01-11T10:47:15.143Z,46.70
2023-01-11T11:02:16.736Z,46.40
2023-01-11T11:17:18.569Z,45.70
2023-01-11T11:32:20.053Z,44.60
2023-01-11T11:47:21.522Z,43.60
2023-01-11T12:17:48.977Z,42.90
2023-01-11T12:32:51.063Z,40.60
2023-01-11T14:23:52.509Z,39.20
2023-01-11T14:38:53.979Z,39.90
2023-01-11T14:53:55.446Z,39.90
2023-01-11T15:08:56.915Z,39.80
2023-01-11T15:23:58.401Z,39.90
2023-01-11T15:38:59.887Z,40.20
2023-01-11T15:54:01.533Z,40.40
2023-01-11T16:09:03.027Z,40.60
2023-01-11T16:24:04.508Z,40.80
2023-01-11T16:39:05.978Z,41.20
2023-01-11T16:54:07.521Z,41.40
2023-01-11T17:09:16.207Z,42.10
2023-01-11T17:24:20.975Z,42.10
2023-01-11T17:39:22.435Z,42.40
2023-01-11T17:54:23.938Z,42.80
2023-01-11T18:09:25.481Z,43.00
2023-01-11T18:24:26.961Z,43.00
2023-01-11T18:39:28.440Z,42.90
2023-01-11T18:54:29.908Z,42.70
2023-01-11T19:09:39.034Z,42.40
2023-01-11T19:24:40.515Z,42.20
2023-01-11T19:39:41.984Z,42.20
2023-01-11T19:54:43.448Z,42.00
2023-01-11T20:24:57.100Z,42.10
2023-01-11T20:39:58.579Z,42.20
2023-01-11T20:55:00.045Z,42.10
2023-01-11T21:10:01.516Z,42.30
2023-01-11T21:25:02.974Z,42.30
2023-01-11T21:40:04.440Z,42.40
2023-01-11T21:55:05.920Z,42.50
2023-01-11T22:10:07.403Z,42.60
2023-01-11T22:25:08.879Z,42.70
2023-01-11T22:40:10.362Z,43.00
2023-01-11T22:55:11.838Z,43.00
2023-01-11T23:10:13.313Z,42.90
2023-01-11T23:25:14.777Z,42.90
2023-01-11T23:40:16.250Z,42.70
2023-01-11T23:55:17.719Z,42.60
